sensor_id;sensor_type;location;lat;lon;timestamp;temperature;humidity
39847;DHT22;25517;52.422;10.782;2023-02-15T00:01:09;1.40;99.90
39847;DHT22;25517;52.422;10.782;2023-02-15T00:03:34;1.40;99.90
39847;DHT22;25517;52.422;10.782;2023-02-15T00:06:00;1.40;99.90
39847;DHT22;25517;52.422;10.782;2023-02-15T00:08:26;1.40;99.90
39847;DHT22;25517;52.422;10.782;2023-02-15T00:10:52;1.30;99.90
39847;DHT22;25517;52.422;10.782;2023-02-15T00:13:17;1.30;99.90
39847;DHT22;25517;52.422;10.782;2023-02-15T00:15:43;1.30;99.90
39847;DHT22;25517;52.422;10.782;2023-02-15T00:18:08;1.30;99.90
39847;DHT22;25517;52.422;10.782;2023-02-15T00:20:34;1.30;99.90
39847;DHT22;25517;52.422;10.782;2023-02-15T00:23:00;1.20;99.90
39847;DHT22;25517;52.422;10.782;2023-02-15T00:25:25;1.20;99.90
39847;DHT22;25517;52.422;10.782;2023-02-15T00:27:51;1.30;99.90
39847;DHT22;25517;52.422;10.782;2023-02-15T00:30:17;1.20;99.90
39847;DHT22;25517;52.422;10.782;2023-02-15T00:32:42;1.20;99.90
39847;DHT22;25517;52.422;10.782;2023-02-15T00:35:08;1.20;99.90
39847;DHT22;25517;52.422;10.782;2023-02-15T00:37:34;1.10;99.90
39847;DHT22;25517;52.422;10.782;2023-02-15T00:40:00;1.00;99.90
39847;DHT22;25517;52.422;10.782;2023-02-15T00:42:26;1.00;99.90
39847;DHT22;25517;52.422;10.782;2023-02-15T00:44:51;1.00;99.90
39847;DHT22;25517;52.422;10.782;2023-02-15T00:47:17;1.10;99.90
39847;DHT22;25517;52.422;10.782;2023-02-15T00:49:42;1.10;99.90
39847;DHT22;25517;52.422;10.782;2023-02-15T00:52:08;1.00;99.90
39847;DHT22;25517;52.422;10.782;2023-02-15T00:54:33;1.00;99.90
39847;DHT22;25517;52.422;10.782;2023-02-15T00:57:00;1.00;99.90
39847;DHT22;25517;52.422;10.782;2023-02-15T00:59:25;1.00;99.90
39847;DHT22;25517;52.422;10.782;2023-02-15T01:01:51;1.00;99.90
39847;DHT22;25517;52.422;10.782;2023-02-15T01:04:16;1.00;99.90
39847;DHT22;25517;52.422;10.782;2023-02-15T01:06:42;1.00;99.90
39847;DHT22;25517;52.422;10.782;2023-02-15T01:09:08;1.00;99.90
39847;DHT22;25517;52.422;10.782;2023-02-15T01:11:33;1.00;99.90
39847;DHT22;25517;52.422;10.782;2023-02-15T01:13:59;0.90;99.90
39847;DHT22;25517;52.422;10.782;2023-02-15T01:16:27;0.90;99.90
39847;DHT22;25517;52.422;10.782;2023-02-15T01:18:53;0.90;99.90
39847;DHT22;25517;52.422;10.782;2023-02-15T01:21:22;0.90;99.90
39847;DHT22;25517;52.422;10.782;2023-02-15T01:23:48;0.90;99.90
39847;DHT22;25517;52.422;10.782;2023-02-15T01:26:14;0.90;99.90
39847;DHT22;25517;52.422;10.782;2023-02-15T01:28:40;0.80;99.90
39847;DHT22;25517;52.422;10.782;2023-02-15T01:31:07;0.80;99.90
39847;DHT22;25517;52.422;10.782;2023-02-15T01:33:33;0.80;99.90
39847;DHT22;25517;52.422;10.782;2023-02-15T01:35:59;0.80;99.90
39847;DHT22;25517;52.422;10.782;2023-02-15T01:38:25;0.80;99.90
39847;DHT22;25517;52.422;10.782;2023-02-15T01:40:52;0.80;99.90
39847;DHT22;25517;52.422;10.782;2023-02-15T01:43:18;0.80;99.90
39847;DHT22;25517;52.422;10.782;2023-02-15T01:45:46;0.80;99.90
39847;DHT22;25517;52.422;10.782;2023-02-15T01:48:22;0.80;99.90
39847;DHT22;25517;52.422;10.782;2023-02-15T01:50:54;0.80;99.90
39847;DHT22;25517;52.422;10.782;2023-02-15T01:56:02;0.80;99.90
39847;DHT22;25517;52.422;10.782;2023-02-15T01:58:29;0.80;99.90
39847;DHT22;25517;52.422;10.782;2023-02-15T02:00:57;0.80;99.90
39847;DHT22;25517;52.422;10.782;2023-02-15T02:03:36;0.80;99.90
39847;DHT22;25517;52.422;10.782;2023-02-15T02:06:04;0.70;99.90
39847;DHT22;25517;52.422;10.782;2023-02-15T02:08:30;0.70;99.90
39847;DHT22;25517;52.422;10.782;2023-02-15T02:10:56;0.70;99.90
39847;DHT22;25517;52.422;10.782;2023-02-15T02:13:22;0.70;99.90
39847;DHT22;25517;52.422;10.782;2023-02-15T02:18:35;0.60;99.90
39847;DHT22;25517;52.422;10.782;2023-02-15T02:36:02;0.30;99.90
39847;DHT22;25517;52.422;10.782;2023-02-15T02:38:57;0.40;99.90
39847;DHT22;25517;52.422;10.782;2023-02-15T02:41:30;0.40;99.90
39847;DHT22;25517;52.422;10.782;2023-02-15T02:44:23;0.40;99.90
39847;DHT22;25517;52.422;10.782;2023-02-15T02:49:38;0.40;99.90
39847;DHT22;25517;52.422;10.782;2023-02-15T02:52:06;0.40;99.90
39847;DHT22;25517;52.422;10.782;2023-02-15T02:54:34;0.40;99.90
39847;DHT22;25517;52.422;10.782;2023-02-15T02:57:04;0.40;99.90
39847;DHT22;25517;52.422;10.782;2023-02-15T02:59:34;0.40;99.90
39847;DHT22;25517;52.422;10.782;2023-02-15T03:02:35;0.40;99.90
39847;DHT22;25517;52.422;10.782;2023-02-15T03:04:59;0.40;99.90
39847;DHT22;25517;52.422;10.782;2023-02-15T03:07:30;0.30;99.90
39847;DHT22;25517;52.422;10.782;2023-02-15T03:09:58;0.30;99.90
39847;DHT22;25517;52.422;10.782;2023-02-15T03:12:36;0.20;99.90
39847;DHT22;25517;52.422;10.782;2023-02-15T03:15:09;0.20;99.90
39847;DHT22;25517;52.422;10.782;2023-02-15T03:17:40;0.20;99.90
39847;DHT22;25517;52.422;10.782;2023-02-15T03:20:30;0.10;99.90
39847;DHT22;25517;52.422;10.782;2023-02-15T03:23:06;0.00;99.90
39847;DHT22;25517;52.422;10.782;2023-02-15T03:25:38;0.00;99.90
39847;DHT22;25517;52.422;10.782;2023-02-15T03:28:11;0.00;99.90
39847;DHT22;25517;52.422;10.782;2023-02-15T03:30:39;-0.10;99.90
39847;DHT22;25517;52.422;10.782;2023-02-15T03:33:06;0.00;99.90
39847;DHT22;25517;52.422;10.782;2023-02-15T03:35:54;0.00;99.90
39847;DHT22;25517;52.422;10.782;2023-02-15T03:38:36;0.00;99.90
39847;DHT22;25517;52.422;10.782;2023-02-15T03:41:06;0.00;99.90
39847;DHT22;25517;52.422;10.782;2023-02-15T03:48:53;0.00;99.90
39847;DHT22;25517;52.422;10.782;2023-02-15T03:51:22;0.00;99.90
39847;DHT22;25517;52.422;10.782;2023-02-15T03:54:09;0.00;99.90
39847;DHT22;25517;52.422;10.782;2023-02-15T03:56:37;0.00;99.90
39847;DHT22;25517;52.422;10.782;2023-02-15T03:59:03;-0.10;99.90
39847;DHT22;25517;52.422;10.782;2023-02-15T04:04:41;0.00;99.90
39847;DHT22;25517;52.422;10.782;2023-02-15T04:07:08;0.00;99.90
39847;DHT22;25517;52.422;10.782;2023-02-15T04:09:34;0.00;99.90
39847;DHT22;25517;52.422;10.782;2023-02-15T04:12:19;-0.10;99.90
39847;DHT22;25517;52.422;10.782;2023-02-15T04:14:44;-0.10;99.90
39847;DHT22;25517;52.422;10.782;2023-02-15T04:17:28;-0.10;99.90
39847;DHT22;25517;52.422;10.782;2023-02-15T04:19:54;-0.20;99.90
39847;DHT22;25517;52.422;10.782;2023-02-15T04:22:38;-0.20;99.90
39847;DHT22;25517;52.422;10.782;2023-02-15T04:25:22;-0.20;99.90
39847;DHT22;25517;52.422;10.782;2023-02-15T04:27:53;-0.20;99.90
39847;DHT22;25517;52.422;10.782;2023-02-15T04:30:22;-0.20;99.90
39847;DHT22;25517;52.422;10.782;2023-02-15T04:32:47;-0.20;99.90
39847;DHT22;25517;52.422;10.782;2023-02-15T04:35:14;-0.30;99.90
39847;DHT22;25517;52.422;10.782;2023-02-15T04:37:41;-0.30;99.90
39847;DHT22;25517;52.422;10.782;2023-02-15T04:40:09;-0.30;99.90
39847;DHT22;25517;52.422;10.782;2023-02-15T04:42:35;-0.40;99.90
39847;DHT22;25517;52.422;10.782;2023-02-15T04:45:00;-0.40;99.90
39847;DHT22;25517;52.422;10.782;2023-02-15T04:47:26;-0.30;99.90
39847;DHT22;25517;52.422;10.782;2023-02-15T04:49:52;-0.40;99.90
39847;DHT22;25517;52.422;10.782;2023-02-15T04:52:17;-0.30;99.90
39847;DHT22;25517;52.422;10.782;2023-02-15T04:54:43;-0.50;99.90
39847;DHT22;25517;52.422;10.782;2023-02-15T04:57:09;-0.50;99.90
39847;DHT22;25517;52.422;10.782;2023-02-15T04:59:35;-0.50;99.90
39847;DHT22;25517;52.422;10.782;2023-02-15T05:02:00;-0.50;99.90
39847;DHT22;25517;52.422;10.782;2023-02-15T05:04:26;-0.50;99.90
39847;DHT22;25517;52.422;10.782;2023-02-15T05:06:51;-0.50;99.90
39847;DHT22;25517;52.422;10.782;2023-02-15T05:09:17;-0.50;99.90
39847;DHT22;25517;52.422;10.782;2023-02-15T05:11:42;-0.50;99.90
39847;DHT22;25517;52.422;10.782;2023-02-15T05:14:08;-0.60;99.90
39847;DHT22;25517;52.422;10.782;2023-02-15T05:16:34;-0.60;99.90
39847;DHT22;25517;52.422;10.782;2023-02-15T05:19:00;-0.60;99.90
39847;DHT22;25517;52.422;10.782;2023-02-15T05:21:25;-0.60;99.90
39847;DHT22;25517;52.422;10.782;2023-02-15T05:23:51;-0.60;99.90
39847;DHT22;25517;52.422;10.782;2023-02-15T05:26:19;-0.60;99.90
39847;DHT22;25517;52.422;10.782;2023-02-15T05:29:04;-0.60;99.90
39847;DHT22;25517;52.422;10.782;2023-02-15T05:31:31;-0.60;99.90
39847;DHT22;25517;52.422;10.782;2023-02-15T05:33:57;-0.60;99.90
39847;DHT22;25517;52.422;10.782;2023-02-15T05:36:23;-0.60;99.90
39847;DHT22;25517;52.422;10.782;2023-02-15T05:38:48;-0.60;99.90
39847;DHT22;25517;52.422;10.782;2023-02-15T05:41:14;-0.70;99.90
39847;DHT22;25517;52.422;10.782;2023-02-15T05:43:40;-0.70;99.90
39847;DHT22;25517;52.422;10.782;2023-02-15T05:46:06;-0.70;99.90
39847;DHT22;25517;52.422;10.782;2023-02-15T05:48:32;-0.70;99.90
39847;DHT22;25517;52.422;10.782;2023-02-15T05:51:02;-0.70;99.90
39847;DHT22;25517;52.422;10.782;2023-02-15T05:53:29;-0.70;99.90
39847;DHT22;25517;52.422;10.782;2023-02-15T05:55:55;-0.70;99.90
39847;DHT22;25517;52.422;10.782;2023-02-15T05:58:28;-0.70;99.90
39847;DHT22;25517;52.422;10.782;2023-02-15T06:00:54;-0.80;99.90
39847;DHT22;25517;52.422;10.782;2023-02-15T06:03:21;-0.80;99.90
39847;DHT22;25517;52.422;10.782;2023-02-15T06:05:46;-0.80;99.90
39847;DHT22;25517;52.422;10.782;2023-02-15T06:08:12;-0.80;99.90
39847;DHT22;25517;52.422;10.782;2023-02-15T06:10:37;-0.90;99.90
39847;DHT22;25517;52.422;10.782;2023-02-15T06:13:05;-0.90;99.90
39847;DHT22;25517;52.422;10.782;2023-02-15T06:15:30;-0.90;99.90
39847;DHT22;25517;52.422;10.782;2023-02-15T06:17:56;-0.90;99.90
39847;DHT22;25517;52.422;10.782;2023-02-15T06:20:22;-0.90;99.90
39847;DHT22;25517;52.422;10.782;2023-02-15T06:22:47;-1.00;99.90
39847;DHT22;25517;52.422;10.782;2023-02-15T06:25:13;-1.00;99.90
39847;DHT22;25517;52.422;10.782;2023-02-15T06:27:41;-1.00;99.90
39847;DHT22;25517;52.422;10.782;2023-02-15T06:30:09;-1.00;99.90
39847;DHT22;25517;52.422;10.782;2023-02-15T06:32:35;-1.00;99.90
39847;DHT22;25517;52.422;10.782;2023-02-15T06:35:00;-0.90;99.90
39847;DHT22;25517;52.422;10.782;2023-02-15T06:37:26;-1.00;99.90
39847;DHT22;25517;52.422;10.782;2023-02-15T06:39:51;-1.00;99.90
39847;DHT22;25517;52.422;10.782;2023-02-15T06:42:17;-1.00;99.90
39847;DHT22;25517;52.422;10.782;2023-02-15T06:44:44;-1.00;99.90
39847;DHT22;25517;52.422;10.782;2023-02-15T06:47:09;-0.90;99.90
39847;DHT22;25517;52.422;10.782;2023-02-15T06:49:36;-0.90;99.90
39847;DHT22;25517;52.422;10.782;2023-02-15T06:52:02;-0.90;99.90
39847;DHT22;25517;52.422;10.782;2023-02-15T06:54:28;-0.90;99.90
39847;DHT22;25517;52.422;10.782;2023-02-15T06:56:54;-0.90;99.90
39847;DHT22;25517;52.422;10.782;2023-02-15T06:59:19;-1.00;99.90
39847;DHT22;25517;52.422;10.782;2023-02-15T07:01:45;-1.00;99.90
39847;DHT22;25517;52.422;10.782;2023-02-15T07:04:10;-0.90;99.90
39847;DHT22;25517;52.422;10.782;2023-02-15T07:06:36;-0.90;99.90
39847;DHT22;25517;52.422;10.782;2023-02-15T07:09:01;-0.90;99.90
39847;DHT22;25517;52.422;10.782;2023-02-15T07:11:28;-0.80;99.90
39847;DHT22;25517;52.422;10.782;2023-02-15T07:14:12;-0.80;99.90
39847;DHT22;25517;52.422;10.782;2023-02-15T07:16:38;-0.80;99.90
39847;DHT22;25517;52.422;10.782;2023-02-15T07:19:04;-0.80;99.90
39847;DHT22;25517;52.422;10.782;2023-02-15T07:21:29;-0.80;99.90
39847;DHT22;25517;52.422;10.782;2023-02-15T07:23:58;-0.80;99.90
39847;DHT22;25517;52.422;10.782;2023-02-15T07:26:24;-0.80;99.90
39847;DHT22;25517;52.422;10.782;2023-02-15T07:28:49;-0.80;99.90
39847;DHT22;25517;52.422;10.782;2023-02-15T07:31:15;-0.70;99.90
39847;DHT22;25517;52.422;10.782;2023-02-15T07:33:40;-0.70;99.90
39847;DHT22;25517;52.422;10.782;2023-02-15T07:36:06;-0.70;99.90
39847;DHT22;25517;52.422;10.782;2023-02-15T07:38:34;-0.70;99.90
39847;DHT22;25517;52.422;10.782;2023-02-15T07:41:01;-0.70;99.90
39847;DHT22;25517;52.422;10.782;2023-02-15T07:43:28;-0.70;99.90
39847;DHT22;25517;52.422;10.782;2023-02-15T07:45:54;-0.60;99.90
39847;DHT22;25517;52.422;10.782;2023-02-15T07:48:23;-0.50;99.90
39847;DHT22;25517;52.422;10.782;2023-02-15T07:50:49;-0.50;99.90
39847;DHT22;25517;52.422;10.782;2023-02-15T07:53:14;-0.50;99.90
39847;DHT22;25517;52.422;10.782;2023-02-15T07:55:40;-0.50;99.90
39847;DHT22;25517;52.422;10.782;2023-02-15T07:58:05;-0.40;99.90
39847;DHT22;25517;52.422;10.782;2023-02-15T08:00:31;-0.40;99.90
39847;DHT22;25517;52.422;10.782;2023-02-15T08:03:16;-0.30;99.90
39847;DHT22;25517;52.422;10.782;2023-02-15T08:05:43;-0.20;99.90
39847;DHT22;25517;52.422;10.782;2023-02-15T08:08:10;-0.20;99.90
39847;DHT22;25517;52.422;10.782;2023-02-15T08:11:03;-0.10;99.90
39847;DHT22;25517;52.422;10.782;2023-02-15T08:13:50;-0.10;99.90
39847;DHT22;25517;52.422;10.782;2023-02-15T08:16:33;0.00;99.90
39847;DHT22;25517;52.422;10.782;2023-02-15T08:19:02;0.00;99.90
39847;DHT22;25517;52.422;10.782;2023-02-15T08:21:29;0.10;99.90
39847;DHT22;25517;52.422;10.782;2023-02-15T08:23:55;0.10;99.90
39847;DHT22;25517;52.422;10.782;2023-02-15T08:26:22;0.20;99.90
39847;DHT22;25517;52.422;10.782;2023-02-15T08:28:48;0.20;99.90
39847;DHT22;25517;52.422;10.782;2023-02-15T08:31:15;0.20;99.90
39847;DHT22;25517;52.422;10.782;2023-02-15T08:33:42;0.30;99.90
39847;DHT22;25517;52.422;10.782;2023-02-15T08:36:14;0.40;99.90
39847;DHT22;25517;52.422;10.782;2023-02-15T08:38:40;0.40;99.90
39847;DHT22;25517;52.422;10.782;2023-02-15T08:41:20;0.50;99.90
39847;DHT22;25517;52.422;10.782;2023-02-15T08:43:48;0.60;99.90
39847;DHT22;25517;52.422;10.782;2023-02-15T08:46:14;0.60;99.90
39847;DHT22;25517;52.422;10.782;2023-02-15T08:48:41;0.70;99.90
39847;DHT22;25517;52.422;10.782;2023-02-15T08:51:09;0.80;99.90
39847;DHT22;25517;52.422;10.782;2023-02-15T08:53:39;0.80;99.90
39847;DHT22;25517;52.422;10.782;2023-02-15T08:56:05;0.90;99.90
39847;DHT22;25517;52.422;10.782;2023-02-15T08:58:31;1.00;99.90
39847;DHT22;25517;52.422;10.782;2023-02-15T09:00:57;1.00;99.90
39847;DHT22;25517;52.422;10.782;2023-02-15T09:03:23;1.10;99.90
39847;DHT22;25517;52.422;10.782;2023-02-15T09:05:49;1.20;99.90
39847;DHT22;25517;52.422;10.782;2023-02-15T09:08:15;1.20;99.90
39847;DHT22;25517;52.422;10.782;2023-02-15T09:10:40;1.30;99.90
39847;DHT22;25517;52.422;10.782;2023-02-15T09:13:06;1.40;99.90
39847;DHT22;25517;52.422;10.782;2023-02-15T09:15:31;1.50;99.90
39847;DHT22;25517;52.422;10.782;2023-02-15T09:17:57;1.60;99.90
39847;DHT22;25517;52.422;10.782;2023-02-15T09:20:26;1.70;99.90
39847;DHT22;25517;52.422;10.782;2023-02-15T09:22:53;1.90;99.90
39847;DHT22;25517;52.422;10.782;2023-02-15T09:25:19;2.10;99.90
39847;DHT22;25517;52.422;10.782;2023-02-15T09:27:45;2.20;99.90
39847;DHT22;25517;52.422;10.782;2023-02-15T09:30:11;2.30;99.90
39847;DHT22;25517;52.422;10.782;2023-02-15T09:32:36;2.40;99.90
39847;DHT22;25517;52.422;10.782;2023-02-15T09:35:02;2.50;99.90
39847;DHT22;25517;52.422;10.782;2023-02-15T09:37:27;2.60;99.90
39847;DHT22;25517;52.422;10.782;2023-02-15T09:39:55;2.70;99.90
39847;DHT22;25517;52.422;10.782;2023-02-15T09:42:33;2.90;99.90
39847;DHT22;25517;52.422;10.782;2023-02-15T09:48:01;5.10;99.90
39847;DHT22;25517;52.422;10.782;2023-02-15T09:50:50;7.70;99.90
39847;DHT22;25517;52.422;10.782;2023-02-15T09:56:31;13.40;98.10
39847;DHT22;25517;52.422;10.782;2023-02-15T10:04:45;17.40;80.70
39847;DHT22;25517;52.422;10.782;2023-02-15T10:31:33;22.30;55.60
39847;DHT22;25517;52.422;10.782;2023-02-15T10:50:27;22.50;54.60
39847;DHT22;25517;52.422;10.782;2023-02-15T10:53:26;22.80;54.80
39847;DHT22;25517;52.422;10.782;2023-02-15T10:56:17;23.10;54.70
39847;DHT22;25517;52.422;10.782;2023-02-15T10:59:04;23.40;53.10
39847;DHT22;25517;52.422;10.782;2023-02-15T11:01:35;23.90;52.70
39847;DHT22;25517;52.422;10.782;2023-02-15T11:04:05;23.60;53.80
39847;DHT22;25517;52.422;10.782;2023-02-15T11:06:36;23.60;51.90
39847;DHT22;25517;52.422;10.782;2023-02-15T11:09:04;23.00;52.40
39847;DHT22;25517;52.422;10.782;2023-02-15T11:11:37;21.50;56.00
39847;DHT22;25517;52.422;10.782;2023-02-15T11:14:35;21.70;56.60
39847;DHT22;25517;52.422;10.782;2023-02-15T11:17:13;22.20;55.40
39847;DHT22;25517;52.422;10.782;2023-02-15T11:22:25;22.70;54.50
39847;DHT22;25517;52.422;10.782;2023-02-15T11:24:51;23.10;53.70
39847;DHT22;25517;52.422;10.782;2023-02-15T11:27:27;23.30;55.00
39847;DHT22;25517;52.422;10.782;2023-02-15T11:30:15;23.40;54.70
39847;DHT22;25517;52.422;10.782;2023-02-15T11:32:43;23.80;55.10
39847;DHT22;25517;52.422;10.782;2023-02-15T11:40:53;23.80;53.10
39847;DHT22;25517;52.422;10.782;2023-02-15T11:43:41;23.10;52.10
39847;DHT22;25517;52.422;10.782;2023-02-15T11:46:11;22.80;51.60
39847;DHT22;25517;52.422;10.782;2023-02-15T11:48:37;23.00;53.10
39847;DHT22;25517;52.422;10.782;2023-02-15T11:51:03;22.90;52.50
39847;DHT22;25517;52.422;10.782;2023-02-15T11:53:32;22.90;52.20
39847;DHT22;25517;52.422;10.782;2023-02-15T11:55:59;22.70;53.70
39847;DHT22;25517;52.422;10.782;2023-02-15T12:04:25;22.40;55.30
39847;DHT22;25517;52.422;10.782;2023-02-15T12:06:58;22.80;53.50
39847;DHT22;25517;52.422;10.782;2023-02-15T12:09:34;22.30;55.30
39847;DHT22;25517;52.422;10.782;2023-02-15T12:14:51;21.80;54.80
39847;DHT22;25517;52.422;10.782;2023-02-15T12:17:17;21.80;55.20
39847;DHT22;25517;52.422;10.782;2023-02-15T12:19:43;21.60;53.20
39847;DHT22;25517;52.422;10.782;2023-02-15T12:22:31;21.80;54.90
39847;DHT22;25517;52.422;10.782;2023-02-15T12:25:04;21.90;53.20
39847;DHT22;25517;52.422;10.782;2023-02-15T12:27:32;21.40;52.90
39847;DHT22;25517;52.422;10.782;2023-02-15T12:29:59;21.40;54.50
39847;DHT22;25517;52.422;10.782;2023-02-15T12:32:30;21.10;53.80
39847;DHT22;25517;52.422;10.782;2023-02-15T12:35:13;21.20;54.70
39847;DHT22;25517;52.422;10.782;2023-02-15T12:37:56;21.30;55.70
39847;DHT22;25517;52.422;10.782;2023-02-15T12:40:27;21.20;56.40
39847;DHT22;25517;52.422;10.782;2023-02-15T12:42:54;20.80;54.20
39847;DHT22;25517;52.422;10.782;2023-02-15T12:45:26;20.30;56.00
39847;DHT22;25517;52.422;10.782;2023-02-15T12:48:21;20.00;55.90
39847;DHT22;25517;52.422;10.782;2023-02-15T12:50:49;19.70;55.70
39847;DHT22;25517;52.422;10.782;2023-02-15T12:53:18;19.40;58.30
39847;DHT22;25517;52.422;10.782;2023-02-15T12:55:55;18.80;59.10
39847;DHT22;25517;52.422;10.782;2023-02-15T12:58:24;18.60;60.90
39847;DHT22;25517;52.422;10.782;2023-02-15T13:03:35;17.70;59.40
39847;DHT22;25517;52.422;10.782;2023-02-15T13:06:02;17.50;61.60
39847;DHT22;25517;52.422;10.782;2023-02-15T13:08:35;17.30;60.40
39847;DHT22;25517;52.422;10.782;2023-02-15T13:11:11;17.30;63.70
39847;DHT22;25517;52.422;10.782;2023-02-15T13:16:41;17.50;59.70
39847;DHT22;25517;52.422;10.782;2023-02-15T13:19:15;17.20;61.30
39847;DHT22;25517;52.422;10.782;2023-02-15T13:21:44;17.00;61.70
39847;DHT22;25517;52.422;10.782;2023-02-15T13:24:53;16.90;63.30
39847;DHT22;25517;52.422;10.782;2023-02-15T13:27:15;16.50;63.90
39847;DHT22;25517;52.422;10.782;2023-02-15T13:29:48;16.50;65.80
39847;DHT22;25517;52.422;10.782;2023-02-15T13:32:26;15.90;63.20
39847;DHT22;25517;52.422;10.782;2023-02-15T13:34:56;15.90;64.90
39847;DHT22;25517;52.422;10.782;2023-02-15T13:40:22;15.90;65.90
39847;DHT22;25517;52.422;10.782;2023-02-15T13:43:06;15.70;67.40
39847;DHT22;25517;52.422;10.782;2023-02-15T13:49:53;15.40;67.20
39847;DHT22;25517;52.422;10.782;2023-02-15T13:51:59;15.10;68.60
39847;DHT22;25517;52.422;10.782;2023-02-15T14:05:45;14.50;71.90
39847;DHT22;25517;52.422;10.782;2023-02-15T14:10:57;14.40;72.40
39847;DHT22;25517;52.422;10.782;2023-02-15T14:24:34;14.50;72.20
39847;DHT22;25517;52.422;10.782;2023-02-15T14:27:12;14.40;71.50
39847;DHT22;25517;52.422;10.782;2023-02-15T14:29:54;14.30;71.70
39847;DHT22;25517;52.422;10.782;2023-02-15T14:32:35;14.00;72.90
39847;DHT22;25517;52.422;10.782;2023-02-15T14:35:05;14.00;75.00
39847;DHT22;25517;52.422;10.782;2023-02-15T14:40:51;13.60;75.10
39847;DHT22;25517;52.422;10.782;2023-02-15T14:43:31;13.40;75.30
39847;DHT22;25517;52.422;10.782;2023-02-15T14:46:07;13.20;77.90
39847;DHT22;25517;52.422;10.782;2023-02-15T14:48:45;13.10;77.40
39847;DHT22;25517;52.422;10.782;2023-02-15T14:59:46;12.50;80.40
39847;DHT22;25517;52.422;10.782;2023-02-15T15:02:21;12.40;81.40
39847;DHT22;25517;52.422;10.782;2023-02-15T15:05:07;12.30;82.30
39847;DHT22;25517;52.422;10.782;2023-02-15T15:07:42;12.20;83.00
39847;DHT22;25517;52.422;10.782;2023-02-15T15:12:51;12.00;81.90
39847;DHT22;25517;52.422;10.782;2023-02-15T15:18:08;11.70;83.10
39847;DHT22;25517;52.422;10.782;2023-02-15T15:25:50;11.40;84.60
39847;DHT22;25517;52.422;10.782;2023-02-15T15:50:41;10.30;93.20
39847;DHT22;25517;52.422;10.782;2023-02-15T15:53:17;10.30;94.10
39847;DHT22;25517;52.422;10.782;2023-02-15T15:55:46;10.20;94.20
39847;DHT22;25517;52.422;10.782;2023-02-15T15:58:14;10.20;94.80
39847;DHT22;25517;52.422;10.782;2023-02-15T16:03:20;10.00;96.00
39847;DHT22;25517;52.422;10.782;2023-02-15T16:05:45;9.80;96.40
39847;DHT22;25517;52.422;10.782;2023-02-15T16:08:11;9.90;96.80
39847;DHT22;25517;52.422;10.782;2023-02-15T16:10:37;9.80;97.20
39847;DHT22;25517;52.422;10.782;2023-02-15T16:13:04;9.80;97.20
39847;DHT22;25517;52.422;10.782;2023-02-15T16:15:46;9.80;97.30
39847;DHT22;25517;52.422;10.782;2023-02-15T16:18:16;9.70;97.90
39847;DHT22;25517;52.422;10.782;2023-02-15T16:20:58;9.70;98.10
39847;DHT22;25517;52.422;10.782;2023-02-15T16:26:47;9.40;99.90
39847;DHT22;25517;52.422;10.782;2023-02-15T16:29:26;9.20;99.90
39847;DHT22;25517;52.422;10.782;2023-02-15T16:32:04;9.00;99.90
39847;DHT22;25517;52.422;10.782;2023-02-15T16:34:31;8.90;99.90
39847;DHT22;25517;52.422;10.782;2023-02-15T16:37:13;8.90;99.90
39847;DHT22;25517;52.422;10.782;2023-02-15T16:39:43;8.80;99.90
39847;DHT22;25517;52.422;10.782;2023-02-15T16:42:11;8.70;99.90
39847;DHT22;25517;52.422;10.782;2023-02-15T16:44:37;8.60;99.90
39847;DHT22;25517;52.422;10.782;2023-02-15T16:47:02;8.40;99.90
39847;DHT22;25517;52.422;10.782;2023-02-15T16:49:29;8.40;99.90
39847;DHT22;25517;52.422;10.782;2023-02-15T16:52:03;8.20;99.90
39847;DHT22;25517;52.422;10.782;2023-02-15T16:54:31;8.20;99.90
39847;DHT22;25517;52.422;10.782;2023-02-15T16:56:58;8.00;99.90
39847;DHT22;25517;52.422;10.782;2023-02-15T16:59:37;7.90;99.90
39847;DHT22;25517;52.422;10.782;2023-02-15T17:02:06;7.70;99.90
39847;DHT22;25517;52.422;10.782;2023-02-15T17:04:37;7.50;99.90
39847;DHT22;25517;52.422;10.782;2023-02-15T17:07:12;7.30;99.90
39847;DHT22;25517;52.422;10.782;2023-02-15T17:09:49;7.30;99.90
39847;DHT22;25517;52.422;10.782;2023-02-15T17:12:47;7.20;99.90
39847;DHT22;25517;52.422;10.782;2023-02-15T17:18:18;6.90;99.90
39847;DHT22;25517;52.422;10.782;2023-02-15T17:20:46;6.70;99.90
39847;DHT22;25517;52.422;10.782;2023-02-15T17:23:32;6.70;99.90
39847;DHT22;25517;52.422;10.782;2023-02-15T17:26:01;6.60;99.90
39847;DHT22;25517;52.422;10.782;2023-02-15T17:28:29;6.50;99.90
39847;DHT22;25517;52.422;10.782;2023-02-15T17:30:56;6.40;99.90
39847;DHT22;25517;52.422;10.782;2023-02-15T17:33:26;6.40;99.90
39847;DHT22;25517;52.422;10.782;2023-02-15T17:36:07;6.30;99.90
39847;DHT22;25517;52.422;10.782;2023-02-15T17:38:35;6.30;99.90
39847;DHT22;25517;52.422;10.782;2023-02-15T17:41:01;6.20;99.90
39847;DHT22;25517;52.422;10.782;2023-02-15T17:43:26;6.20;99.90
39847;DHT22;25517;52.422;10.782;2023-02-15T17:45:52;6.20;99.90
39847;DHT22;25517;52.422;10.782;2023-02-15T17:48:26;6.10;99.90
39847;DHT22;25517;52.422;10.782;2023-02-15T17:51:05;6.10;99.90
39847;DHT22;25517;52.422;10.782;2023-02-15T17:53:32;6.10;99.90
39847;DHT22;25517;52.422;10.782;2023-02-15T17:55:58;6.00;99.90
39847;DHT22;25517;52.422;10.782;2023-02-15T17:58:23;5.90;99.90
39847;DHT22;25517;52.422;10.782;2023-02-15T18:00:51;5.90;99.90
39847;DHT22;25517;52.422;10.782;2023-02-15T18:03:46;5.80;99.90
39847;DHT22;25517;52.422;10.782;2023-02-15T18:06:30;5.60;99.90
39847;DHT22;25517;52.422;10.782;2023-02-15T18:09:17;5.70;99.90
39847;DHT22;25517;52.422;10.782;2023-02-15T18:12:05;5.70;99.90
39847;DHT22;25517;52.422;10.782;2023-02-15T18:14:36;5.60;99.90
39847;DHT22;25517;52.422;10.782;2023-02-15T18:17:03;5.60;99.90
39847;DHT22;25517;52.422;10.782;2023-02-15T18:19:29;5.50;99.90
39847;DHT22;25517;52.422;10.782;2023-02-15T18:21:54;5.50;99.90
39847;DHT22;25517;52.422;10.782;2023-02-15T18:24:26;5.40;99.90
39847;DHT22;25517;52.422;10.782;2023-02-15T18:26:53;5.50;99.90
39847;DHT22;25517;52.422;10.782;2023-02-15T18:29:18;5.40;99.90
39847;DHT22;25517;52.422;10.782;2023-02-15T18:31:48;5.40;99.90
39847;DHT22;25517;52.422;10.782;2023-02-15T18:34:22;5.40;99.90
39847;DHT22;25517;52.422;10.782;2023-02-15T18:36:49;5.30;99.90
39847;DHT22;25517;52.422;10.782;2023-02-15T18:41:54;5.20;99.90
39847;DHT22;25517;52.422;10.782;2023-02-15T18:44:19;5.20;99.90
39847;DHT22;25517;52.422;10.782;2023-02-15T18:46:45;5.10;99.90
39847;DHT22;25517;52.422;10.782;2023-02-15T18:49:11;5.00;99.90
39847;DHT22;25517;52.422;10.782;2023-02-15T18:51:36;5.00;99.90
39847;DHT22;25517;52.422;10.782;2023-02-15T18:54:05;5.00;99.90
39847;DHT22;25517;52.422;10.782;2023-02-15T18:56:31;5.00;99.90